sensor_id;sensor_type;location;lat;lon;timestamp;P1;durP1;ratioP1;P2;durP2;ratioP2
68176;SDS011;56478;50.982;7.032;2023-03-16T00:01:16;6.75;;;3.70;;
68176;SDS011;56478;50.982;7.032;2023-03-16T00:03:42;8.23;;;3.50;;
68176;SDS011;56478;50.982;7.032;2023-03-16T00:06:07;3.67;;;3.20;;
68176;SDS011;56478;50.982;7.032;2023-03-16T00:08:33;3.65;;;3.35;;
68176;SDS011;56478;50.982;7.032;2023-03-16T00:10:59;4.00;;;3.38;;
68176;SDS011;56478;50.982;7.032;2023-03-16T00:13:27;9.30;;;3.70;;
68176;SDS011;56478;50.982;7.032;2023-03-16T00:15:54;4.28;;;3.30;;
68176;SDS011;56478;50.982;7.032;2023-03-16T00:18:22;4.03;;;3.33;;
68176;SDS011;56478;50.982;7.032;2023-03-16T00:20:59;5.07;;;3.42;;
68176;SDS011;56478;50.982;7.032;2023-03-16T00:23:30;5.22;;;3.60;;
68176;SDS011;56478;50.982;7.032;2023-03-16T00:26:00;6.03;;;3.75;;
68176;SDS011;56478;50.982;7.032;2023-03-16T00:28:28;3.90;;;3.13;;
68176;SDS011;56478;50.982;7.032;2023-03-16T00:30:59;6.43;;;3.47;;
68176;SDS011;56478;50.982;7.032;2023-03-16T00:33:29;5.82;;;3.50;;
68176;SDS011;56478;50.982;7.032;2023-03-16T00:35:59;4.18;;;3.08;;
68176;SDS011;56478;50.982;7.032;2023-03-16T00:38:29;4.35;;;3.30;;
68176;SDS011;56478;50.982;7.032;2023-03-16T00:40:59;5.68;;;3.15;;
68176;SDS011;56478;50.982;7.032;2023-03-16T00:45:57;5.57;;;3.15;;
68176;SDS011;56478;50.982;7.032;2023-03-16T00:48:33;6.57;;;3.15;;
68176;SDS011;56478;50.982;7.032;2023-03-16T00:51:01;3.53;;;3.10;;
68176;SDS011;56478;50.982;7.032;2023-03-16T00:53:28;4.43;;;2.90;;
68176;SDS011;56478;50.982;7.032;2023-03-16T00:55:55;4.13;;;3.28;;
68176;SDS011;56478;50.982;7.032;2023-03-16T00:58:21;3.97;;;3.10;;
68176;SDS011;56478;50.982;7.032;2023-03-16T01:00:47;4.18;;;2.83;;
68176;SDS011;56478;50.982;7.032;2023-03-16T01:03:13;4.03;;;3.00;;
68176;SDS011;56478;50.982;7.032;2023-03-16T01:05:39;4.95;;;3.08;;
68176;SDS011;56478;50.982;7.032;2023-03-16T01:08:06;3.60;;;3.03;;
68176;SDS011;56478;50.982;7.032;2023-03-16T01:10:33;5.05;;;3.03;;
68176;SDS011;56478;50.982;7.032;2023-03-16T01:12:59;3.03;;;2.55;;
68176;SDS011;56478;50.982;7.032;2023-03-16T01:15:27;5.32;;;3.10;;
68176;SDS011;56478;50.982;7.032;2023-03-16T01:17:54;4.50;;;3.47;;
68176;SDS011;56478;50.982;7.032;2023-03-16T01:20:20;4.72;;;2.90;;
68176;SDS011;56478;50.982;7.032;2023-03-16T01:22:46;4.32;;;2.70;;
68176;SDS011;56478;50.982;7.032;2023-03-16T01:25:11;4.35;;;3.00;;
68176;SDS011;56478;50.982;7.032;2023-03-16T01:27:37;3.60;;;2.25;;
68176;SDS011;56478;50.982;7.032;2023-03-16T01:30:03;3.92;;;2.80;;
68176;SDS011;56478;50.982;7.032;2023-03-16T01:32:30;5.15;;;2.97;;
68176;SDS011;56478;50.982;7.032;2023-03-16T01:34:56;4.93;;;2.78;;
68176;SDS011;56478;50.982;7.032;2023-03-16T01:37:21;5.13;;;2.65;;
68176;SDS011;56478;50.982;7.032;2023-03-16T01:39:48;3.42;;;2.65;;
68176;SDS011;56478;50.982;7.032;2023-03-16T01:42:14;4.22;;;2.85;;
68176;SDS011;56478;50.982;7.032;2023-03-16T01:44:50;7.30;;;2.55;;
68176;SDS011;56478;50.982;7.032;2023-03-16T01:47:21;5.93;;;3.05;;
68176;SDS011;56478;50.982;7.032;2023-03-16T01:49:47;2.38;;;2.05;;
68176;SDS011;56478;50.982;7.032;2023-03-16T01:52:18;4.95;;;2.45;;
68176;SDS011;56478;50.982;7.032;2023-03-16T01:54:48;2.72;;;2.30;;
68176;SDS011;56478;50.982;7.032;2023-03-16T01:59:56;2.30;;;2.13;;
68176;SDS011;56478;50.982;7.032;2023-03-16T02:02:45;5.43;;;2.88;;
68176;SDS011;56478;50.982;7.032;2023-03-16T02:05:22;4.25;;;2.25;;
68176;SDS011;56478;50.982;7.032;2023-03-16T02:07:53;3.75;;;2.70;;
68176;SDS011;56478;50.982;7.032;2023-03-16T02:10:23;3.20;;;2.47;;
68176;SDS011;56478;50.982;7.032;2023-03-16T02:12:51;3.47;;;2.47;;
68176;SDS011;56478;50.982;7.032;2023-03-16T02:15:17;3.72;;;3.10;;
68176;SDS011;56478;50.982;7.032;2023-03-16T02:17:43;2.33;;;2.15;;
68176;SDS011;56478;50.982;7.032;2023-03-16T02:22:58;3.80;;;2.58;;
68176;SDS011;56478;50.982;7.032;2023-03-16T02:25:29;4.28;;;2.58;;
68176;SDS011;56478;50.982;7.032;2023-03-16T02:30:30;3.00;;;2.50;;
68176;SDS011;56478;50.982;7.032;2023-03-16T02:32:56;5.05;;;2.70;;
68176;SDS011;56478;50.982;7.032;2023-03-16T02:35:22;6.88;;;2.88;;
68176;SDS011;56478;50.982;7.032;2023-03-16T02:37:47;2.83;;;2.58;;
68176;SDS011;56478;50.982;7.032;2023-03-16T02:40:23;5.07;;;2.60;;
68176;SDS011;56478;50.982;7.032;2023-03-16T02:42:59;4.13;;;2.90;;
68176;SDS011;56478;50.982;7.032;2023-03-16T02:48:00;3.17;;;2.38;;
68176;SDS011;56478;50.982;7.032;2023-03-16T02:50:29;5.05;;;2.85;;
68176;SDS011;56478;50.982;7.032;2023-03-16T02:52:55;11.73;;;2.90;;
68176;SDS011;56478;50.982;7.032;2023-03-16T02:55:20;5.85;;;2.65;;
68176;SDS011;56478;50.982;7.032;2023-03-16T02:57:46;4.45;;;2.90;;
68176;SDS011;56478;50.982;7.032;2023-03-16T03:00:12;3.15;;;2.33;;
68176;SDS011;56478;50.982;7.032;2023-03-16T03:02:43;4.05;;;2.97;;
68176;SDS011;56478;50.982;7.032;2023-03-16T03:05:10;3.20;;;2.90;;
68176;SDS011;56478;50.982;7.032;2023-03-16T03:07:36;4.53;;;2.42;;
68176;SDS011;56478;50.982;7.032;2023-03-16T03:10:02;3.35;;;2.40;;
68176;SDS011;56478;50.982;7.032;2023-03-16T03:12:30;2.88;;;2.58;;
68176;SDS011;56478;50.982;7.032;2023-03-16T03:14:59;3.47;;;2.50;;
68176;SDS011;56478;50.982;7.032;2023-03-16T03:17:25;3.92;;;2.35;;
68176;SDS011;56478;50.982;7.032;2023-03-16T03:19:57;2.38;;;2.20;;
68176;SDS011;56478;50.982;7.032;2023-03-16T03:22:24;2.85;;;2.47;;
68176;SDS011;56478;50.982;7.032;2023-03-16T03:24:51;3.70;;;2.50;;
68176;SDS011;56478;50.982;7.032;2023-03-16T03:27:17;6.53;;;2.55;;
68176;SDS011;56478;50.982;7.032;2023-03-16T03:29:44;2.28;;;2.13;;
68176;SDS011;56478;50.982;7.032;2023-03-16T03:32:10;3.30;;;2.58;;
68176;SDS011;56478;50.982;7.032;2023-03-16T03:34:36;3.42;;;2.40;;
68176;SDS011;56478;50.982;7.032;2023-03-16T03:37:01;3.25;;;1.35;;
68176;SDS011;56478;50.982;7.032;2023-03-16T03:39:27;4.35;;;2.40;;
68176;SDS011;56478;50.982;7.032;2023-03-16T03:41:53;5.72;;;2.15;;
68176;SDS011;56478;50.982;7.032;2023-03-16T03:44:23;3.03;;;2.10;;
68176;SDS011;56478;50.982;7.032;2023-03-16T03:46:48;1.90;;;1.80;;
68176;SDS011;56478;50.982;7.032;2023-03-16T03:49:15;3.50;;;2.33;;
68176;SDS011;56478;50.982;7.032;2023-03-16T03:51:41;2.38;;;2.20;;
68176;SDS011;56478;50.982;7.032;2023-03-16T03:54:07;6.63;;;2.00;;
68176;SDS011;56478;50.982;7.032;2023-03-16T03:56:33;2.30;;;1.70;;
68176;SDS011;56478;50.982;7.032;2023-03-16T03:58:58;4.72;;;2.40;;
68176;SDS011;56478;50.982;7.032;2023-03-16T04:01:24;3.95;;;2.45;;
68176;SDS011;56478;50.982;7.032;2023-03-16T04:03:50;6.40;;;2.60;;
68176;SDS011;56478;50.982;7.032;2023-03-16T04:06:15;4.72;;;2.58;;
68176;SDS011;56478;50.982;7.032;2023-03-16T04:08:41;3.40;;;2.53;;
68176;SDS011;56478;50.982;7.032;2023-03-16T04:11:07;3.00;;;2.10;;
68176;SDS011;56478;50.982;7.032;2023-03-16T04:13:32;2.38;;;2.15;;
68176;SDS011;56478;50.982;7.032;2023-03-16T04:15:58;3.00;;;2.40;;
68176;SDS011;56478;50.982;7.032;2023-03-16T04:18:26;3.72;;;2.38;;
68176;SDS011;56478;50.982;7.032;2023-03-16T04:20:52;2.80;;;2.20;;
68176;SDS011;56478;50.982;7.032;2023-03-16T04:23:18;1.33;;;1.30;;
68176;SDS011;56478;50.982;7.032;2023-03-16T04:25:44;2.00;;;1.70;;
68176;SDS011;56478;50.982;7.032;2023-03-16T04:28:10;3.30;;;2.40;;
68176;SDS011;56478;50.982;7.032;2023-03-16T04:30:36;3.55;;;1.95;;
68176;SDS011;56478;50.982;7.032;2023-03-16T04:33:01;4.20;;;2.60;;
68176;SDS011;56478;50.982;7.032;2023-03-16T04:35:27;3.97;;;2.50;;
68176;SDS011;56478;50.982;7.032;2023-03-16T04:37:52;3.95;;;2.75;;
68176;SDS011;56478;50.982;7.032;2023-03-16T04:40:18;2.33;;;2.13;;
68176;SDS011;56478;50.982;7.032;2023-03-16T04:42:45;2.55;;;1.73;;
68176;SDS011;56478;50.982;7.032;2023-03-16T04:45:12;3.72;;;2.50;;
68176;SDS011;56478;50.982;7.032;2023-03-16T04:47:38;2.20;;;2.00;;
68176;SDS011;56478;50.982;7.032;2023-03-16T04:50:04;5.57;;;2.78;;
68176;SDS011;56478;50.982;7.032;2023-03-16T04:52:32;3.28;;;2.15;;
68176;SDS011;56478;50.982;7.032;2023-03-16T04:54:58;4.70;;;3.38;;
68176;SDS011;56478;50.982;7.032;2023-03-16T04:57:24;2.45;;;1.73;;
68176;SDS011;56478;50.982;7.032;2023-03-16T04:59:49;3.17;;;2.88;;
68176;SDS011;56478;50.982;7.032;2023-03-16T05:02:15;3.38;;;2.90;;
68176;SDS011;56478;50.982;7.032;2023-03-16T05:04:42;3.25;;;2.72;;
68176;SDS011;56478;50.982;7.032;2023-03-16T05:07:07;6.38;;;2.97;;
68176;SDS011;56478;50.982;7.032;2023-03-16T05:09:33;4.07;;;2.90;;
68176;SDS011;56478;50.982;7.032;2023-03-16T05:11:58;3.60;;;3.00;;
68176;SDS011;56478;50.982;7.032;2023-03-16T05:14:24;3.22;;;2.70;;
68176;SDS011;56478;50.982;7.032;2023-03-16T05:16:50;5.40;;;3.22;;
68176;SDS011;56478;50.982;7.032;2023-03-16T05:19:16;6.20;;;3.30;;
68176;SDS011;56478;50.982;7.032;2023-03-16T05:21:41;4.07;;;2.47;;
68176;SDS011;56478;50.982;7.032;2023-03-16T05:24:07;6.18;;;3.38;;
68176;SDS011;56478;50.982;7.032;2023-03-16T05:26:33;4.72;;;2.72;;
68176;SDS011;56478;50.982;7.032;2023-03-16T05:28:59;6.20;;;3.63;;
68176;SDS011;56478;50.982;7.032;2023-03-16T05:31:25;4.05;;;3.47;;
68176;SDS011;56478;50.982;7.032;2023-03-16T05:33:51;5.13;;;3.30;;
68176;SDS011;56478;50.982;7.032;2023-03-16T05:36:17;4.35;;;3.28;;
68176;SDS011;56478;50.982;7.032;2023-03-16T05:38:44;4.32;;;2.72;;
68176;SDS011;56478;50.982;7.032;2023-03-16T05:41:10;3.25;;;2.83;;
68176;SDS011;56478;50.982;7.032;2023-03-16T05:43:36;4.07;;;3.38;;
68176;SDS011;56478;50.982;7.032;2023-03-16T05:46:02;4.15;;;3.40;;
68176;SDS011;56478;50.982;7.032;2023-03-16T05:48:27;5.85;;;3.40;;
68176;SDS011;56478;50.982;7.032;2023-03-16T05:50:53;6.60;;;3.58;;
68176;SDS011;56478;50.982;7.032;2023-03-16T05:53:19;5.97;;;3.70;;
68176;SDS011;56478;50.982;7.032;2023-03-16T05:55:50;6.82;;;3.70;;
68176;SDS011;56478;50.982;7.032;2023-03-16T05:58:16;4.93;;;3.20;;
68176;SDS011;56478;50.982;7.032;2023-03-16T06:00:42;4.53;;;3.13;;
68176;SDS011;56478;50.982;7.032;2023-03-16T06:03:07;3.92;;;3.13;;
68176;SDS011;56478;50.982;7.032;2023-03-16T06:05:33;2.85;;;2.58;;
68176;SDS011;56478;50.982;7.032;2023-03-16T06:07:59;7.75;;;3.58;;
68176;SDS011;56478;50.982;7.032;2023-03-16T06:10:25;3.50;;;3.15;;
68176;SDS011;56478;50.982;7.032;2023-03-16T06:12:51;4.65;;;3.38;;
68176;SDS011;56478;50.982;7.032;2023-03-16T06:15:17;4.07;;;3.13;;
68176;SDS011;56478;50.982;7.032;2023-03-16T06:17:43;5.18;;;3.40;;
68176;SDS011;56478;50.982;7.032;2023-03-16T06:20:10;6.90;;;2.92;;
68176;SDS011;56478;50.982;7.032;2023-03-16T06:22:38;4.45;;;3.03;;
68176;SDS011;56478;50.982;7.032;2023-03-16T06:25:07;3.75;;;3.42;;
68176;SDS011;56478;50.982;7.032;2023-03-16T06:27:36;4.65;;;3.47;;
68176;SDS011;56478;50.982;7.032;2023-03-16T06:30:02;6.25;;;3.88;;
68176;SDS011;56478;50.982;7.032;2023-03-16T06:32:29;3.47;;;3.17;;
68176;SDS011;56478;50.982;7.032;2023-03-16T06:34:54;6.32;;;3.50;;
68176;SDS011;56478;50.982;7.032;2023-03-16T06:37:20;3.33;;;3.03;;
68176;SDS011;56478;50.982;7.032;2023-03-16T06:39:46;4.65;;;3.00;;
68176;SDS011;56478;50.982;7.032;2023-03-16T06:42:11;4.13;;;2.92;;
68176;SDS011;56478;50.982;7.032;2023-03-16T06:44:37;4.40;;;3.35;;
68176;SDS011;56478;50.982;7.032;2023-03-16T06:47:02;4.50;;;3.17;;
68176;SDS011;56478;50.982;7.032;2023-03-16T06:49:28;5.03;;;3.55;;
68176;SDS011;56478;50.982;7.032;2023-03-16T06:51:54;4.88;;;3.38;;
68176;SDS011;56478;50.982;7.032;2023-03-16T06:54:22;3.72;;;3.13;;
68176;SDS011;56478;50.982;7.032;2023-03-16T06:56:47;5.85;;;3.70;;
68176;SDS011;56478;50.982;7.032;2023-03-16T06:59:13;5.25;;;3.20;;
68176;SDS011;56478;50.982;7.032;2023-03-16T07:01:38;2.63;;;2.15;;
68176;SDS011;56478;50.982;7.032;2023-03-16T07:04:04;4.70;;;3.67;;
68176;SDS011;56478;50.982;7.032;2023-03-16T07:06:30;5.13;;;3.70;;
68176;SDS011;56478;50.982;7.032;2023-03-16T07:08:56;4.35;;;3.35;;
68176;SDS011;56478;50.982;7.032;2023-03-16T07:11:21;4.85;;;3.17;;
68176;SDS011;56478;50.982;7.032;2023-03-16T07:13:47;5.68;;;4.03;;
68176;SDS011;56478;50.982;7.032;2023-03-16T07:16:13;4.22;;;3.03;;
68176;SDS011;56478;50.982;7.032;2023-03-16T07:18:39;4.78;;;3.47;;
68176;SDS011;56478;50.982;7.032;2023-03-16T07:21:08;4.50;;;3.80;;
68176;SDS011;56478;50.982;7.032;2023-03-16T07:23:34;5.88;;;3.55;;
68176;SDS011;56478;50.982;7.032;2023-03-16T07:25:59;3.42;;;2.67;;
68176;SDS011;56478;50.982;7.032;2023-03-16T07:28:26;4.22;;;3.28;;
68176;SDS011;56478;50.982;7.032;2023-03-16T07:30:52;5.43;;;3.95;;
68176;SDS011;56478;50.982;7.032;2023-03-16T07:33:17;3.97;;;3.25;;
68176;SDS011;56478;50.982;7.032;2023-03-16T07:35:43;4.07;;;3.22;;
68176;SDS011;56478;50.982;7.032;2023-03-16T07:38:09;5.50;;;3.40;;
68176;SDS011;56478;50.982;7.032;2023-03-16T07:40:37;6.15;;;3.95;;
68176;SDS011;56478;50.982;7.032;2023-03-16T07:43:04;5.55;;;4.30;;
68176;SDS011;56478;50.982;7.032;2023-03-16T07:45:29;4.13;;;3.67;;
68176;SDS011;56478;50.982;7.032;2023-03-16T07:47:56;4.15;;;3.75;;
68176;SDS011;56478;50.982;7.032;2023-03-16T07:50:21;6.53;;;3.75;;
68176;SDS011;56478;50.982;7.032;2023-03-16T07:52:47;4.30;;;3.90;;
68176;SDS011;56478;50.982;7.032;2023-03-16T07:55:13;5.43;;;4.15;;
68176;SDS011;56478;50.982;7.032;2023-03-16T07:57:39;5.22;;;4.28;;
68176;SDS011;56478;50.982;7.032;2023-03-16T08:00:06;2.80;;;2.60;;
68176;SDS011;56478;50.982;7.032;2023-03-16T08:02:33;6.47;;;4.43;;
68176;SDS011;56478;50.982;7.032;2023-03-16T08:04:59;7.05;;;4.45;;
68176;SDS011;56478;50.982;7.032;2023-03-16T08:07:25;3.97;;;2.95;;
68176;SDS011;56478;50.982;7.032;2023-03-16T08:09:51;6.55;;;4.07;;
68176;SDS011;56478;50.982;7.032;2023-03-16T08:12:17;7.13;;;4.30;;
68176;SDS011;56478;50.982;7.032;2023-03-16T08:14:42;5.82;;;4.00;;
68176;SDS011;56478;50.982;7.032;2023-03-16T08:17:09;4.63;;;3.83;;
68176;SDS011;56478;50.982;7.032;2023-03-16T08:19:36;5.32;;;4.18;;
68176;SDS011;56478;50.982;7.032;2023-03-16T08:22:03;5.20;;;3.55;;
68176;SDS011;56478;50.982;7.032;2023-03-16T08:24:29;4.85;;;4.25;;
68176;SDS011;56478;50.982;7.032;2023-03-16T08:26:56;6.20;;;4.28;;
68176;SDS011;56478;50.982;7.032;2023-03-16T08:29:23;4.53;;;4.07;;
68176;SDS011;56478;50.982;7.032;2023-03-16T08:31:49;6.63;;;4.07;;
68176;SDS011;56478;50.982;7.032;2023-03-16T08:34:17;4.82;;;4.32;;
68176;SDS011;56478;50.982;7.032;2023-03-16T08:36:43;3.42;;;3.13;;
68176;SDS011;56478;50.982;7.032;2023-03-16T08:39:09;5.55;;;4.40;;
68176;SDS011;56478;50.982;7.032;2023-03-16T08:41:34;4.82;;;3.60;;
68176;SDS011;56478;50.982;7.032;2023-03-16T08:44:00;5.43;;;3.90;;
68176;SDS011;56478;50.982;7.032;2023-03-16T08:46:27;5.35;;;4.20;;
68176;SDS011;56478;50.982;7.032;2023-03-16T08:48:52;5.25;;;3.95;;
68176;SDS011;56478;50.982;7.032;2023-03-16T08:51:19;6.20;;;4.70;;
68176;SDS011;56478;50.982;7.032;2023-03-16T08:53:45;6.50;;;4.18;;
68176;SDS011;56478;50.982;7.032;2023-03-16T08:56:11;7.93;;;4.93;;
68176;SDS011;56478;50.982;7.032;2023-03-16T08:58:39;6.30;;;3.63;;
68176;SDS011;56478;50.982;7.032;2023-03-16T09:01:09;4.53;;;4.03;;
68176;SDS011;56478;50.982;7.032;2023-03-16T09:03:37;6.47;;;4.70;;
68176;SDS011;56478;50.982;7.032;2023-03-16T09:06:04;6.00;;;4.80;;
68176;SDS011;56478;50.982;7.032;2023-03-16T09:08:31;5.27;;;4.60;;
68176;SDS011;56478;50.982;7.032;2023-03-16T09:10:58;5.95;;;4.78;;
68176;SDS011;56478;50.982;7.032;2023-03-16T09:13:33;4.95;;;3.95;;
68176;SDS011;56478;50.982;7.032;2023-03-16T09:16:00;6.72;;;4.60;;
68176;SDS011;56478;50.982;7.032;2023-03-16T09:18:25;5.72;;;4.30;;
68176;SDS011;56478;50.982;7.032;2023-03-16T09:20:52;4.25;;;3.45;;
68176;SDS011;56478;50.982;7.032;2023-03-16T09:23:22;5.28;;;3.72;;
68176;SDS011;56478;50.982;7.032;2023-03-16T09:25:48;6.47;;;4.53;;
68176;SDS011;56478;50.982;7.032;2023-03-16T09:28:15;5.35;;;4.43;;
68176;SDS011;56478;50.982;7.032;2023-03-16T09:30:41;4.85;;;4.35;;
68176;SDS011;56478;50.982;7.032;2023-03-16T09:33:07;8.45;;;4.40;;
68176;SDS011;56478;50.982;7.032;2023-03-16T09:35:33;5.22;;;4.32;;
68176;SDS011;56478;50.982;7.032;2023-03-16T09:37:58;5.38;;;4.38;;
68176;SDS011;56478;50.982;7.032;2023-03-16T09:40:25;4.30;;;3.90;;
68176;SDS011;56478;50.982;7.032;2023-03-16T09:48:16;5.20;;;4.00;;
68176;SDS011;56478;50.982;7.032;2023-03-16T09:50:45;5.70;;;3.88;;
68176;SDS011;56478;50.982;7.032;2023-03-16T09:53:23;5.25;;;3.80;;
68176;SDS011;56478;50.982;7.032;2023-03-16T09:56:01;6.07;;;4.38;;
68176;SDS011;56478;50.982;7.032;2023-03-16T09:58:29;4.03;;;3.28;;
68176;SDS011;56478;50.982;7.032;2023-03-16T10:06:26;4.68;;;4.22;;
68176;SDS011;56478;50.982;7.032;2023-03-16T10:09:06;4.05;;;3.65;;
68176;SDS011;56478;50.982;7.032;2023-03-16T10:11:46;6.00;;;3.40;;
68176;SDS011;56478;50.982;7.032;2023-03-16T10:14:29;4.70;;;3.80;;
68176;SDS011;56478;50.982;7.032;2023-03-16T10:19:48;4.40;;;3.58;;
68176;SDS011;56478;50.982;7.032;2023-03-16T10:22:51;3.85;;;3.35;;
68176;SDS011;56478;50.982;7.032;2023-03-16T10:25:29;4.00;;;3.10;;
68176;SDS011;56478;50.982;7.032;2023-03-16T10:28:03;4.75;;;3.45;;
68176;SDS011;56478;50.982;7.032;2023-03-16T10:30:30;4.20;;;3.53;;
68176;SDS011;56478;50.982;7.032;2023-03-16T10:33:02;3.88;;;2.25;;
68176;SDS011;56478;50.982;7.032;2023-03-16T10:35:45;5.68;;;3.40;;
68176;SDS011;56478;50.982;7.032;2023-03-16T10:41:53;4.32;;;3.20;;
68176;SDS011;56478;50.982;7.032;2023-03-16T10:43:53;3.88;;;3.50;;
68176;SDS011;56478;50.982;7.032;2023-03-16T10:46:34;4.80;;;3.47;;
68176;SDS011;56478;50.982;7.032;2023-03-16T10:49:04;3.78;;;3.33;;
68176;SDS011;56478;50.982;7.032;2023-03-16T10:51:31;3.95;;;3.15;;
68176;SDS011;56478;50.982;7.032;2023-03-16T10:54:14;5.60;;;2.90;;
68176;SDS011;56478;50.982;7.032;2023-03-16T10:56:43;3.28;;;2.97;;
68176;SDS011;56478;50.982;7.032;2023-03-16T10:59:13;3.92;;;3.42;;
68176;SDS011;56478;50.982;7.032;2023-03-16T11:01:43;6.65;;;2.90;;
68176;SDS011;56478;50.982;7.032;2023-03-16T11:04:13;4.35;;;3.17;;
68176;SDS011;56478;50.982;7.032;2023-03-16T11:06:46;3.88;;;3.00;;
68176;SDS011;56478;50.982;7.032;2023-03-16T11:09:22;2.63;;;2.42;;
68176;SDS011;56478;50.982;7.032;2023-03-16T11:11:50;3.80;;;3.15;;
68176;SDS011;56478;50.982;7.032;2023-03-16T11:14:19;5.32;;;3.03;;
68176;SDS011;56478;50.982;7.032;2023-03-16T11:16:48;3.38;;;2.70;;
68176;SDS011;56478;50.982;7.032;2023-03-16T11:19:23;3.53;;;3.20;;
68176;SDS011;56478;50.982;7.032;2023-03-16T11:22:23;3.30;;;3.00;;
68176;SDS011;56478;50.982;7.032;2023-03-16T11:27:22;3.92;;;3.25;;
68176;SDS011;56478;50.982;7.032;2023-03-16T11:32:49;3.63;;;3.10;;
68176;SDS011;56478;50.982;7.032;2023-03-16T11:35:18;3.08;;;2.75;;
68176;SDS011;56478;50.982;7.032;2023-03-16T11:38:06;3.63;;;3.20;;
68176;SDS011;56478;50.982;7.032;2023-03-16T11:46:30;4.18;;;3.05;;
68176;SDS011;56478;50.982;7.032;2023-03-16T11:54:37;3.10;;;2.60;;
68176;SDS011;56478;50.982;7.032;2023-03-16T12:00:35;3.60;;;2.90;;
68176;SDS011;56478;50.982;7.032;2023-03-16T12:11:30;2.47;;;2.30;;
68176;SDS011;56478;50.982;7.032;2023-03-16T12:17:02;3.30;;;2.60;;
68176;SDS011;56478;50.982;7.032;2023-03-16T12:25:03;3.17;;;2.22;;
68176;SDS011;56478;50.982;7.032;2023-03-16T12:27:37;5.65;;;2.50;;
68176;SDS011;56478;50.982;7.032;2023-03-16T12:41:10;5.32;;;2.25;;
68176;SDS011;56478;50.982;7.032;2023-03-16T12:43:48;9.13;;;3.20;;
68176;SDS011;56478;50.982;7.032;2023-03-16T12:49:48;3.10;;;2.22;;
68176;SDS011;56478;50.982;7.032;2023-03-16T12:52:16;2.38;;;2.00;;
68176;SDS011;56478;50.982;7.032;2023-03-16T12:57:40;3.33;;;2.10;;
68176;SDS011;56478;50.982;7.032;2023-03-16T13:00:08;4.05;;;1.90;;
68176;SDS011;56478;50.982;7.032;2023-03-16T13:02:36;2.40;;;1.93;;
68176;SDS011;56478;50.982;7.032;2023-03-16T13:05:09;4.03;;;2.08;;
68176;SDS011;56478;50.982;7.032;2023-03-16T13:07:44;2.85;;;1.95;;
68176;SDS011;56478;50.982;7.032;2023-03-16T13:10:11;2.72;;;2.00;;
68176;SDS011;56478;50.982;7.032;2023-03-16T13:12:39;1.73;;;1.63;;
68176;SDS011;56478;50.982;7.032;2023-03-16T13:17:47;4.07;;;2.00;;
68176;SDS011;56478;50.982;7.032;2023-03-16T13:26:12;5.35;;;1.90;;
68176;SDS011;56478;50.982;7.032;2023-03-16T13:28:40;3.90;;;2.00;;
68176;SDS011;56478;50.982;7.032;2023-03-16T13:31:23;6.68;;;1.75;;
68176;SDS011;56478;50.982;7.032;2023-03-16T13:33:59;2.17;;;1.92;;
68176;SDS011;56478;50.982;7.032;2023-03-16T13:36:28;2.78;;;1.50;;
68176;SDS011;56478;50.982;7.032;2023-03-16T13:41:35;10.77;;;2.20;;
68176;SDS011;56478;50.982;7.032;2023-03-16T13:44:02;4.15;;;1.73;;
68176;SDS011;56478;50.982;7.032;2023-03-16T13:46:29;2.20;;;1.98;;
68176;SDS011;56478;50.982;7.032;2023-03-16T13:48:56;2.85;;;2.10;;
68176;SDS011;56478;50.982;7.032;2023-03-16T13:51:24;2.33;;;2.10;;
68176;SDS011;56478;50.982;7.032;2023-03-16T13:53:50;2.35;;;1.80;;
68176;SDS011;56478;50.982;7.032;2023-03-16T13:56:20;1.58;;;1.48;;
68176;SDS011;56478;50.982;7.032;2023-03-16T13:58:50;1.85;;;1.75;;
68176;SDS011;56478;50.982;7.032;2023-03-16T14:01:27;4.13;;;1.98;;
68176;SDS011;56478;50.982;7.032;2023-03-16T14:03:56;3.90;;;2.05;;
68176;SDS011;56478;50.982;7.032;2023-03-16T14:06:25;2.92;;;1.80;;
68176;SDS011;56478;50.982;7.032;2023-03-16T14:08:55;2.95;;;1.90;;
68176;SDS011;56478;50.982;7.032;2023-03-16T14:11:25;2.95;;;1.88;;
68176;SDS011;56478;50.982;7.032;2023-03-16T14:13:53;3.33;;;2.00;;
68176;SDS011;56478;50.982;7.032;2023-03-16T14:16:21;2.20;;;1.92;;
68176;SDS011;56478;50.982;7.032;2023-03-16T14:19:02;3.47;;;1.98;;
68176;SDS011;56478;50.982;7.032;2023-03-16T14:21:32;3.70;;;1.90;;
68176;SDS011;56478;50.982;7.032;2023-03-16T14:23:59;3.22;;;2.00;;
68176;SDS011;56478;50.982;7.032;2023-03-16T14:26:46;2.85;;;2.05;;
68176;SDS011;56478;50.982;7.032;2023-03-16T14:31:48;2.15;;;1.90;;
68176;SDS011;56478;50.982;7.032;2023-03-16T14:34:25;2.22;;;1.90;;
68176;SDS011;56478;50.982;7.032;2023-03-16T14:39:38;2.22;;;2.03;;
68176;SDS011;56478;50.982;7.032;2023-03-16T14:42:05;2.25;;;2.05;;
68176;SDS011;56478;50.982;7.032;2023-03-16T14:44:57;3.83;;;1.95;;
68176;SDS011;56478;50.982;7.032;2023-03-16T14:47:27;2.75;;;2.55;;
68176;SDS011;56478;50.982;7.032;2023-03-16T14:49:59;2.67;;;2.08;;
68176;SDS011;56478;50.982;7.032;2023-03-16T14:52:30;1.85;;;1.75;;
68176;SDS011;56478;50.982;7.032;2023-03-16T14:54:58;3.35;;;2.10;;
68176;SDS011;56478;50.982;7.032;2023-03-16T14:57:25;1.92;;;1.70;;
68176;SDS011;56478;50.982;7.032;2023-03-16T14:59:51;1.90;;;1.80;;
68176;SDS011;56478;50.982;7.032;2023-03-16T15:02:35;2.65;;;2.10;;
68176;SDS011;56478;50.982;7.032;2023-03-16T15:05:01;3.65;;;2.15;;
68176;SDS011;56478;50.982;7.032;2023-03-16T15:07:28;2.20;;;2.00;;
68176;SDS011;56478;50.982;7.032;2023-03-16T15:10:38;1.98;;;1.80;;
68176;SDS011;56478;50.982;7.032;2023-03-16T15:12:46;2.38;;;1.90;;
68176;SDS011;56478;50.982;7.032;2023-03-16T15:15:18;2.35;;;1.92;;
68176;SDS011;56478;50.982;7.032;2023-03-16T15:17:48;2.47;;;2.05;;
68176;SDS011;56478;50.982;7.032;2023-03-16T15:20:16;2.00;;;1.90;;
68176;SDS011;56478;50.982;7.032;2023-03-16T15:22:57;2.17;;;2.08;;
68176;SDS011;56478;50.982;7.032;2023-03-16T15:25:27;3.55;;;1.90;;
68176;SDS011;56478;50.982;7.032;2023-03-16T15:28:21;2.95;;;2.30;;
68176;SDS011;56478;50.982;7.032;2023-03-16T15:30:48;2.03;;;1.90;;
68176;SDS011;56478;50.982;7.032;2023-03-16T15:33:18;2.83;;;2.25;;
68176;SDS011;56478;50.982;7.032;2023-03-16T15:35:46;2.38;;;1.85;;
68176;SDS011;56478;50.982;7.032;2023-03-16T15:38:14;2.40;;;1.70;;
68176;SDS011;56478;50.982;7.032;2023-03-16T15:40:43;2.40;;;2.08;;
68176;SDS011;56478;50.982;7.032;2023-03-16T15:43:12;3.00;;;2.03;;
68176;SDS011;56478;50.982;7.032;2023-03-16T15:48:07;2.03;;;1.90;;
68176;SDS011;56478;50.982;7.032;2023-03-16T15:50:34;3.03;;;2.30;;
68176;SDS011;56478;50.982;7.032;2023-03-16T15:53:03;2.60;;;2.30;;
68176;SDS011;56478;50.982;7.032;2023-03-16T15:55:36;3.97;;;2.30;;
68176;SDS011;56478;50.982;7.032;2023-03-16T15:58:05;2.22;;;2.03;;
68176;SDS011;56478;50.982;7.032;2023-03-16T16:00:35;2.65;;;2.30;;
68176;SDS011;56478;50.982;7.032;2023-03-16T16:03:04;2.17;;;1.95;;
68176;SDS011;56478;50.982;7.032;2023-03-16T16:05:30;4.25;;;2.38;;
68176;SDS011;56478;50.982;7.032;2023-03-16T16:07:57;3.42;;;2.13;;
68176;SDS011;56478;50.982;7.032;2023-03-16T16:10:23;3.08;;;2.42;;
68176;SDS011;56478;50.982;7.032;2023-03-16T16:12:50;2.50;;;2.30;;
68176;SDS011;56478;50.982;7.032;2023-03-16T16:15:28;3.42;;;2.90;;
68176;SDS011;56478;50.982;7.032;2023-03-16T16:17:58;2.42;;;2.22;;
68176;SDS011;56478;50.982;7.032;2023-03-16T16:20:25;2.90;;;2.60;;
68176;SDS011;56478;50.982;7.032;2023-03-16T16:22:53;2.92;;;2.60;;
68176;SDS011;56478;50.982;7.032;2023-03-16T16:25:23;3.47;;;2.63;;
68176;SDS011;56478;50.982;7.032;2023-03-16T16:27:51;3.78;;;2.70;;
68176;SDS011;56478;50.982;7.032;2023-03-16T16:30:19;4.57;;;2.30;;
68176;SDS011;56478;50.982;7.032;2023-03-16T16:32:50;3.83;;;2.67;;
68176;SDS011;56478;50.982;7.032;2023-03-16T16:35:17;3.15;;;2.50;;
68176;SDS011;56478;50.982;7.032;2023-03-16T16:37:48;4.07;;;2.70;;
68176;SDS011;56478;50.982;7.032;2023-03-16T16:40:21;2.80;;;2.60;;